sensor_id;sensor_type;location;lat;lon;timestamp;pressure;altitude;pressure_sealevel;temperature;humidity
47983;BME280;33751;50.816;-1.214;2023-04-29T00:01:00;101670.10;;;27.32;100.00
47983;BME280;33751;50.816;-1.214;2023-04-29T00:03:27;101668.62;;;27.77;100.00
47983;BME280;33751;50.816;-1.214;2023-04-29T00:05:53;101669.67;;;27.82;100.00
47983;BME280;33751;50.816;-1.214;2023-04-29T00:08:20;101667.90;;;27.86;100.00
47983;BME280;33751;50.816;-1.214;2023-04-29T00:10:46;101670.01;;;28.00;100.00
47983;BME280;33751;50.816;-1.214;2023-04-29T00:13:13;101668.78;;;27.91;100.00
47983;BME280;33751;50.816;-1.214;2023-04-29T00:15:40;101668.34;;;27.81;100.00
47983;BME280;33751;50.816;-1.214;2023-04-29T00:18:07;101665.64;;;27.92;100.00
47983;BME280;33751;50.816;-1.214;2023-04-29T00:20:34;101664.66;;;27.63;100.00
47983;BME280;33751;50.816;-1.214;2023-04-29T00:23:00;101664.10;;;27.64;100.00
47983;BME280;33751;50.816;-1.214;2023-04-29T00:25:27;101665.66;;;27.80;100.00
47983;BME280;33751;50.816;-1.214;2023-04-29T00:27:53;101663.17;;;27.69;100.00
47983;BME280;33751;50.816;-1.214;2023-04-29T00:30:20;101663.61;;;27.96;100.00
47983;BME280;33751;50.816;-1.214;2023-04-29T00:32:46;101668.90;;;27.89;100.00
47983;BME280;33751;50.816;-1.214;2023-04-29T00:35:13;101671.05;;;27.48;100.00
47983;BME280;33751;50.816;-1.214;2023-04-29T00:37:39;101668.66;;;27.74;100.00
47983;BME280;33751;50.816;-1.214;2023-04-29T00:40:07;101669.74;;;27.29;100.00
47983;BME280;33751;50.816;-1.214;2023-04-29T00:42:34;101668.45;;;27.70;100.00
47983;BME280;33751;50.816;-1.214;2023-04-29T00:45:00;101671.34;;;27.75;100.00
47983;BME280;33751;50.816;-1.214;2023-04-29T00:47:27;101669.71;;;27.64;100.00
47983;BME280;33751;50.816;-1.214;2023-04-29T00:49:54;101675.35;;;27.78;100.00
47983;BME280;33751;50.816;-1.214;2023-04-29T00:52:21;101676.67;;;27.53;100.00
47983;BME280;33751;50.816;-1.214;2023-04-29T00:54:49;101673.74;;;27.73;100.00
47983;BME280;33751;50.816;-1.214;2023-04-29T00:57:18;101674.45;;;27.75;100.00
47983;BME280;33751;50.816;-1.214;2023-04-29T00:59:45;101672.90;;;27.68;100.00
47983;BME280;33751;50.816;-1.214;2023-04-29T01:02:12;101674.99;;;27.73;100.00
47983;BME280;33751;50.816;-1.214;2023-04-29T01:04:38;101676.70;;;27.68;100.00
47983;BME280;33751;50.816;-1.214;2023-04-29T01:07:11;101675.92;;;27.64;100.00
47983;BME280;33751;50.816;-1.214;2023-04-29T01:09:49;101679.67;;;27.67;100.00
47983;BME280;33751;50.816;-1.214;2023-04-29T01:12:21;101679.89;;;27.35;100.00
47983;BME280;33751;50.816;-1.214;2023-04-29T01:15:02;101679.56;;;27.50;100.00
47983;BME280;33751;50.816;-1.214;2023-04-29T01:17:32;101674.62;;;27.53;100.00
47983;BME280;33751;50.816;-1.214;2023-04-29T01:20:01;101674.40;;;27.54;100.00
47983;BME280;33751;50.816;-1.214;2023-04-29T01:22:29;101680.94;;;27.42;100.00
47983;BME280;33751;50.816;-1.214;2023-04-29T01:24:56;101680.29;;;27.35;100.00
47983;BME280;33751;50.816;-1.214;2023-04-29T01:27:30;101680.18;;;27.44;100.00
47983;BME280;33751;50.816;-1.214;2023-04-29T01:30:03;101679.50;;;27.39;100.00
47983;BME280;33751;50.816;-1.214;2023-04-29T01:32:49;101679.40;;;27.43;100.00
47983;BME280;33751;50.816;-1.214;2023-04-29T01:35:26;101678.00;;;27.19;100.00
47983;BME280;33751;50.816;-1.214;2023-04-29T01:37:58;101677.25;;;27.57;100.00
47983;BME280;33751;50.816;-1.214;2023-04-29T01:40:35;101681.32;;;27.14;100.00
47983;BME280;33751;50.816;-1.214;2023-04-29T01:43:04;101692.30;;;26.46;100.00
47983;BME280;33751;50.816;-1.214;2023-04-29T01:45:33;101693.38;;;26.23;100.00
47983;BME280;33751;50.816;-1.214;2023-04-29T01:48:03;101691.15;;;26.24;100.00
47983;BME280;33751;50.816;-1.214;2023-04-29T01:50:30;101694.57;;;26.22;100.00
47983;BME280;33751;50.816;-1.214;2023-04-29T01:52:57;101692.62;;;26.17;100.00
47983;BME280;33751;50.816;-1.214;2023-04-29T01:55:23;101692.43;;;26.22;100.00
47983;BME280;33751;50.816;-1.214;2023-04-29T01:57:50;101696.05;;;26.30;100.00
47983;BME280;33751;50.816;-1.214;2023-04-29T02:00:16;101697.43;;;26.07;100.00
47983;BME280;33751;50.816;-1.214;2023-04-29T02:02:43;101700.46;;;26.06;100.00
47983;BME280;33751;50.816;-1.214;2023-04-29T02:05:09;101705.09;;;26.09;100.00
47983;BME280;33751;50.816;-1.214;2023-04-29T02:07:36;101704.22;;;26.09;100.00
47983;BME280;33751;50.816;-1.214;2023-04-29T02:10:03;101707.43;;;26.17;100.00
47983;BME280;33751;50.816;-1.214;2023-04-29T02:12:30;101703.93;;;25.81;100.00
47983;BME280;33751;50.816;-1.214;2023-04-29T02:14:56;101704.77;;;25.91;100.00
47983;BME280;33751;50.816;-1.214;2023-04-29T02:17:23;101702.29;;;26.37;100.00
47983;BME280;33751;50.816;-1.214;2023-04-29T02:19:49;101699.74;;;26.37;100.00
47983;BME280;33751;50.816;-1.214;2023-04-29T02:22:16;101699.13;;;26.14;100.00
47983;BME280;33751;50.816;-1.214;2023-04-29T02:24:43;101704.31;;;26.26;100.00
47983;BME280;33751;50.816;-1.214;2023-04-29T02:27:09;101704.44;;;26.20;100.00
47983;BME280;33751;50.816;-1.214;2023-04-29T02:29:36;101705.73;;;26.15;100.00
47983;BME280;33751;50.816;-1.214;2023-04-29T02:32:03;101712.65;;;26.05;100.00
47983;BME280;33751;50.816;-1.214;2023-04-29T02:34:29;101718.17;;;25.91;100.00
47983;BME280;33751;50.816;-1.214;2023-04-29T02:36:55;101716.72;;;26.47;100.00
47983;BME280;33751;50.816;-1.214;2023-04-29T02:39:22;101714.27;;;26.24;100.00
47983;BME280;33751;50.816;-1.214;2023-04-29T02:41:53;101709.35;;;26.02;100.00
47983;BME280;33751;50.816;-1.214;2023-04-29T02:44:20;101713.85;;;26.03;100.00
47983;BME280;33751;50.816;-1.214;2023-04-29T02:46:46;101719.56;;;25.95;100.00
47983;BME280;33751;50.816;-1.214;2023-04-29T02:49:13;101720.53;;;26.26;100.00
47983;BME280;33751;50.816;-1.214;2023-04-29T02:51:39;101722.29;;;26.26;100.00
47983;BME280;33751;50.816;-1.214;2023-04-29T02:54:06;101724.80;;;25.95;100.00
47983;BME280;33751;50.816;-1.214;2023-04-29T02:56:32;101727.73;;;26.03;100.00
47983;BME280;33751;50.816;-1.214;2023-04-29T02:58:59;101732.51;;;26.00;100.00
47983;BME280;33751;50.816;-1.214;2023-04-29T03:01:27;101733.64;;;25.97;100.00
47983;BME280;33751;50.816;-1.214;2023-04-29T03:03:54;101737.87;;;26.48;100.00
47983;BME280;33751;50.816;-1.214;2023-04-29T03:06:20;101738.88;;;26.43;100.00
47983;BME280;33751;50.816;-1.214;2023-04-29T03:08:47;101742.14;;;25.87;100.00
47983;BME280;33751;50.816;-1.214;2023-04-29T03:11:13;101743.80;;;26.12;100.00
47983;BME280;33751;50.816;-1.214;2023-04-29T03:13:40;101745.96;;;26.08;100.00
47983;BME280;33751;50.816;-1.214;2023-04-29T03:16:06;101745.27;;;26.20;100.00
47983;BME280;33751;50.816;-1.214;2023-04-29T03:18:34;101748.81;;;25.73;100.00
47983;BME280;33751;50.816;-1.214;2023-04-29T03:21:00;101751.90;;;25.66;100.00
47983;BME280;33751;50.816;-1.214;2023-04-29T03:23:27;101755.18;;;26.12;100.00
47983;BME280;33751;50.816;-1.214;2023-04-29T03:25:53;101757.32;;;25.86;100.00
47983;BME280;33751;50.816;-1.214;2023-04-29T03:28:20;101758.86;;;26.19;100.00
47983;BME280;33751;50.816;-1.214;2023-04-29T03:30:46;101760.23;;;25.71;100.00
47983;BME280;33751;50.816;-1.214;2023-04-29T03:33:13;101768.37;;;25.90;100.00
47983;BME280;33751;50.816;-1.214;2023-04-29T03:35:39;101775.05;;;25.51;100.00
47983;BME280;33751;50.816;-1.214;2023-04-29T03:38:06;101775.52;;;26.21;100.00
47983;BME280;33751;50.816;-1.214;2023-04-29T03:40:32;101779.38;;;25.66;100.00
47983;BME280;33751;50.816;-1.214;2023-04-29T03:42:59;101782.90;;;26.19;100.00
47983;BME280;33751;50.816;-1.214;2023-04-29T03:45:26;101788.54;;;26.24;100.00
47983;BME280;33751;50.816;-1.214;2023-04-29T03:47:53;101787.41;;;26.15;100.00
47983;BME280;33751;50.816;-1.214;2023-04-29T03:50:19;101788.54;;;26.09;100.00
47983;BME280;33751;50.816;-1.214;2023-04-29T03:52:46;101789.56;;;25.98;100.00
47983;BME280;33751;50.816;-1.214;2023-04-29T03:55:12;101792.80;;;25.79;100.00
47983;BME280;33751;50.816;-1.214;2023-04-29T03:57:39;101794.14;;;26.01;100.00
47983;BME280;33751;50.816;-1.214;2023-04-29T04:00:06;101796.07;;;25.97;100.00
47983;BME280;33751;50.816;-1.214;2023-04-29T04:02:33;101796.02;;;25.46;100.00
47983;BME280;33751;50.816;-1.214;2023-04-29T04:05:00;101794.72;;;25.44;100.00
47983;BME280;33751;50.816;-1.214;2023-04-29T04:07:26;101799.70;;;25.81;100.00
47983;BME280;33751;50.816;-1.214;2023-04-29T04:09:53;101802.50;;;25.94;100.00
47983;BME280;33751;50.816;-1.214;2023-04-29T04:12:19;101805.08;;;25.77;100.00
47983;BME280;33751;50.816;-1.214;2023-04-29T04:14:46;101807.64;;;25.72;100.00
47983;BME280;33751;50.816;-1.214;2023-04-29T04:17:12;101811.62;;;26.03;100.00
47983;BME280;33751;50.816;-1.214;2023-04-29T04:19:39;101813.39;;;26.05;100.00
47983;BME280;33751;50.816;-1.214;2023-04-29T04:22:05;101816.66;;;25.91;100.00
47983;BME280;33751;50.816;-1.214;2023-04-29T04:24:32;101820.22;;;25.38;100.00
47983;BME280;33751;50.816;-1.214;2023-04-29T04:26:58;101823.35;;;25.96;100.00
47983;BME280;33751;50.816;-1.214;2023-04-29T04:29:25;101826.23;;;25.77;100.00
47983;BME280;33751;50.816;-1.214;2023-04-29T04:31:51;101828.18;;;25.77;100.00
47983;BME280;33751;50.816;-1.214;2023-04-29T04:34:18;101831.86;;;25.93;100.00
47983;BME280;33751;50.816;-1.214;2023-04-29T04:36:44;101835.94;;;25.67;100.00
47983;BME280;33751;50.816;-1.214;2023-04-29T04:39:11;101839.24;;;25.67;100.00
47983;BME280;33751;50.816;-1.214;2023-04-29T04:41:37;101839.40;;;25.88;100.00
47983;BME280;33751;50.816;-1.214;2023-04-29T04:44:04;101837.72;;;25.80;100.00
47983;BME280;33751;50.816;-1.214;2023-04-29T04:46:30;101840.56;;;25.65;100.00
47983;BME280;33751;50.816;-1.214;2023-04-29T04:48:57;101843.37;;;25.82;100.00
47983;BME280;33751;50.816;-1.214;2023-04-29T04:51:23;101842.97;;;25.68;100.00
47983;BME280;33751;50.816;-1.214;2023-04-29T04:53:50;101843.51;;;25.99;100.00
47983;BME280;33751;50.816;-1.214;2023-04-29T04:56:16;101840.48;;;25.80;100.00
47983;BME280;33751;50.816;-1.214;2023-04-29T04:58:43;101841.96;;;25.84;100.00
47983;BME280;33751;50.816;-1.214;2023-04-29T05:01:09;101842.46;;;25.78;100.00
47983;BME280;33751;50.816;-1.214;2023-04-29T05:03:36;101844.51;;;25.80;100.00
47983;BME280;33751;50.816;-1.214;2023-04-29T05:06:02;101845.72;;;25.81;100.00
47983;BME280;33751;50.816;-1.214;2023-04-29T05:08:29;101848.71;;;25.31;100.00
47983;BME280;33751;50.816;-1.214;2023-04-29T05:10:55;101850.64;;;25.70;100.00
47983;BME280;33751;50.816;-1.214;2023-04-29T05:13:22;101854.53;;;25.97;100.00
47983;BME280;33751;50.816;-1.214;2023-04-29T05:15:49;101856.67;;;26.00;100.00
47983;BME280;33751;50.816;-1.214;2023-04-29T05:18:16;101859.87;;;26.08;100.00
47983;BME280;33751;50.816;-1.214;2023-04-29T05:20:42;101865.18;;;26.07;100.00
47983;BME280;33751;50.816;-1.214;2023-04-29T05:23:09;101866.14;;;25.50;100.00
47983;BME280;33751;50.816;-1.214;2023-04-29T05:25:35;101870.49;;;25.62;100.00
47983;BME280;33751;50.816;-1.214;2023-04-29T05:28:02;101871.51;;;26.12;100.00
47983;BME280;33751;50.816;-1.214;2023-04-29T05:30:28;101871.29;;;25.64;100.00
47983;BME280;33751;50.816;-1.214;2023-04-29T05:32:55;101871.13;;;26.10;100.00
47983;BME280;33751;50.816;-1.214;2023-04-29T05:35:21;101870.30;;;25.92;100.00
47983;BME280;33751;50.816;-1.214;2023-04-29T05:37:48;101874.60;;;26.43;100.00
47983;BME280;33751;50.816;-1.214;2023-04-29T05:40:14;101875.53;;;26.65;100.00
47983;BME280;33751;50.816;-1.214;2023-04-29T05:42:41;101879.63;;;26.85;100.00
47983;BME280;33751;50.816;-1.214;2023-04-29T05:45:09;101883.11;;;27.40;100.00
47983;BME280;33751;50.816;-1.214;2023-04-29T05:47:36;101883.50;;;27.20;100.00
47983;BME280;33751;50.816;-1.214;2023-04-29T05:50:02;101882.38;;;27.40;100.00
47983;BME280;33751;50.816;-1.214;2023-04-29T05:52:29;101878.17;;;27.66;100.00
47983;BME280;33751;50.816;-1.214;2023-04-29T05:54:56;101881.98;;;28.49;100.00
47983;BME280;33751;50.816;-1.214;2023-04-29T05:57:22;101881.56;;;28.84;100.00
47983;BME280;33751;50.816;-1.214;2023-04-29T05:59:49;101879.47;;;28.88;100.00
47983;BME280;33751;50.816;-1.214;2023-04-29T06:02:15;101878.55;;;29.28;100.00
47983;BME280;33751;50.816;-1.214;2023-04-29T06:04:42;101879.72;;;29.13;100.00
47983;BME280;33751;50.816;-1.214;2023-04-29T06:07:08;101883.12;;;29.22;100.00
47983;BME280;33751;50.816;-1.214;2023-04-29T06:09:35;101885.18;;;29.11;100.00
47983;BME280;33751;50.816;-1.214;2023-04-29T06:12:03;101886.77;;;29.56;100.00
47983;BME280;33751;50.816;-1.214;2023-04-29T06:14:30;101887.62;;;30.04;100.00
47983;BME280;33751;50.816;-1.214;2023-04-29T06:16:56;101891.17;;;30.13;100.00
47983;BME280;33751;50.816;-1.214;2023-04-29T06:19:23;101896.35;;;30.42;100.00
47983;BME280;33751;50.816;-1.214;2023-04-29T06:21:49;101901.19;;;30.56;100.00
47983;BME280;33751;50.816;-1.214;2023-04-29T06:24:16;101903.34;;;30.41;100.00
47983;BME280;33751;50.816;-1.214;2023-04-29T06:26:42;101907.01;;;30.85;100.00
47983;BME280;33751;50.816;-1.214;2023-04-29T06:29:09;101909.15;;;31.61;100.00
47983;BME280;33751;50.816;-1.214;2023-04-29T06:31:36;101912.70;;;31.34;100.00
47983;BME280;33751;50.816;-1.214;2023-04-29T06:34:02;101914.45;;;31.76;100.00
47983;BME280;33751;50.816;-1.214;2023-04-29T06:36:29;101914.48;;;31.15;100.00
47983;BME280;33751;50.816;-1.214;2023-04-29T06:38:56;101917.86;;;32.00;100.00
47983;BME280;33751;50.816;-1.214;2023-04-29T06:41:22;101917.44;;;31.72;100.00
47983;BME280;33751;50.816;-1.214;2023-04-29T06:43:49;101916.89;;;32.24;100.00
47983;BME280;33751;50.816;-1.214;2023-04-29T06:46:15;101917.02;;;32.38;100.00
47983;BME280;33751;50.816;-1.214;2023-04-29T06:48:42;101920.17;;;32.25;100.00
47983;BME280;33751;50.816;-1.214;2023-04-29T06:51:08;101923.57;;;32.25;100.00
47983;BME280;33751;50.816;-1.214;2023-04-29T06:53:35;101923.20;;;32.70;100.00
47983;BME280;33751;50.816;-1.214;2023-04-29T06:56:01;101918.65;;;33.05;100.00
47983;BME280;33751;50.816;-1.214;2023-04-29T06:58:28;101921.06;;;32.59;100.00
47983;BME280;33751;50.816;-1.214;2023-04-29T07:00:54;101921.22;;;32.62;100.00
47983;BME280;33751;50.816;-1.214;2023-04-29T07:03:21;101919.29;;;32.66;100.00
47983;BME280;33751;50.816;-1.214;2023-04-29T07:05:47;101922.80;;;32.45;100.00
47983;BME280;33751;50.816;-1.214;2023-04-29T07:08:14;101928.55;;;33.09;100.00
47983;BME280;33751;50.816;-1.214;2023-04-29T07:10:40;101931.24;;;32.95;100.00
47983;BME280;33751;50.816;-1.214;2023-04-29T07:13:07;101932.24;;;33.19;100.00
47983;BME280;33751;50.816;-1.214;2023-04-29T07:15:34;101934.19;;;33.04;100.00
47983;BME280;33751;50.816;-1.214;2023-04-29T07:18:02;101936.62;;;33.92;100.00
47983;BME280;33751;50.816;-1.214;2023-04-29T07:20:29;101938.85;;;33.40;100.00
47983;BME280;33751;50.816;-1.214;2023-04-29T07:22:55;101942.81;;;33.43;100.00
47983;BME280;33751;50.816;-1.214;2023-04-29T07:25:22;101944.92;;;33.37;100.00
47983;BME280;33751;50.816;-1.214;2023-04-29T07:27:48;101945.78;;;32.71;100.00
47983;BME280;33751;50.816;-1.214;2023-04-29T07:30:15;101947.31;;;32.82;100.00
47983;BME280;33751;50.816;-1.214;2023-04-29T07:32:41;101951.39;;;33.40;100.00
47983;BME280;33751;50.816;-1.214;2023-04-29T07:35:08;101954.37;;;32.77;100.00
47983;BME280;33751;50.816;-1.214;2023-04-29T07:37:35;101963.12;;;32.00;100.00
47983;BME280;33751;50.816;-1.214;2023-04-29T07:40:01;101966.93;;;31.39;100.00
47983;BME280;33751;50.816;-1.214;2023-04-29T07:42:28;101964.47;;;30.86;100.00
47983;BME280;33751;50.816;-1.214;2023-04-29T07:44:54;101962.69;;;31.16;100.00
47983;BME280;33751;50.816;-1.214;2023-04-29T07:47:21;101960.37;;;31.26;100.00
47983;BME280;33751;50.816;-1.214;2023-04-29T07:49:47;101962.62;;;31.15;100.00
47983;BME280;33751;50.816;-1.214;2023-04-29T07:52:14;101964.43;;;31.47;100.00
47983;BME280;33751;50.816;-1.214;2023-04-29T07:54:40;101963.67;;;31.18;100.00
47983;BME280;33751;50.816;-1.214;2023-04-29T07:57:07;101963.23;;;31.18;100.00
47983;BME280;33751;50.816;-1.214;2023-04-29T07:59:33;101965.85;;;30.36;100.00
47983;BME280;33751;50.816;-1.214;2023-04-29T08:02:00;101973.57;;;30.72;100.00
47983;BME280;33751;50.816;-1.214;2023-04-29T08:04:26;101976.82;;;30.35;100.00
47983;BME280;33751;50.816;-1.214;2023-04-29T08:06:53;101979.64;;;29.94;100.00
47983;BME280;33751;50.816;-1.214;2023-04-29T08:09:20;101976.12;;;30.14;100.00
47983;BME280;33751;50.816;-1.214;2023-04-29T08:11:47;101977.59;;;29.79;100.00
47983;BME280;33751;50.816;-1.214;2023-04-29T08:14:14;101979.32;;;29.59;100.00
47983;BME280;33751;50.816;-1.214;2023-04-29T08:16:40;101979.02;;;29.64;100.00
47983;BME280;33751;50.816;-1.214;2023-04-29T08:19:07;101980.73;;;29.99;100.00
47983;BME280;33751;50.816;-1.214;2023-04-29T08:21:34;101984.07;;;30.19;100.00
47983;BME280;33751;50.816;-1.214;2023-04-29T08:24:00;101985.09;;;29.72;100.00
47983;BME280;33751;50.816;-1.214;2023-04-29T08:26:27;101984.80;;;29.87;100.00
47983;BME280;33751;50.816;-1.214;2023-04-29T08:28:54;101986.00;;;30.06;100.00
47983;BME280;33751;50.816;-1.214;2023-04-29T08:31:20;101989.64;;;29.81;100.00
47983;BME280;33751;50.816;-1.214;2023-04-29T08:33:47;101987.59;;;29.37;100.00
47983;BME280;33751;50.816;-1.214;2023-04-29T08:36:15;101990.01;;;29.71;100.00
47983;BME280;33751;50.816;-1.214;2023-04-29T08:38:42;101990.89;;;29.63;100.00
47983;BME280;33751;50.816;-1.214;2023-04-29T08:41:09;101991.51;;;29.75;100.00
47983;BME280;33751;50.816;-1.214;2023-04-29T08:43:36;101995.37;;;29.56;100.00
47983;BME280;33751;50.816;-1.214;2023-04-29T08:46:03;101997.38;;;29.82;100.00
47983;BME280;33751;50.816;-1.214;2023-04-29T08:48:31;101993.43;;;30.44;100.00
47983;BME280;33751;50.816;-1.214;2023-04-29T08:50:58;101991.24;;;30.52;100.00
47983;BME280;33751;50.816;-1.214;2023-04-29T08:53:25;101994.04;;;30.55;100.00
47983;BME280;33751;50.816;-1.214;2023-04-29T08:55:53;101996.56;;;30.86;100.00
47983;BME280;33751;50.816;-1.214;2023-04-29T08:58:21;101999.20;;;30.88;100.00
47983;BME280;33751;50.816;-1.214;2023-04-29T09:00:50;102002.96;;;30.72;100.00
47983;BME280;33751;50.816;-1.214;2023-04-29T09:03:23;102008.95;;;30.47;100.00
47983;BME280;33751;50.816;-1.214;2023-04-29T09:05:53;102014.08;;;30.61;100.00
47983;BME280;33751;50.816;-1.214;2023-04-29T09:08:21;102013.88;;;30.69;100.00
47983;BME280;33751;50.816;-1.214;2023-04-29T09:10:49;102017.15;;;30.57;100.00
47983;BME280;33751;50.816;-1.214;2023-04-29T09:13:24;102020.49;;;31.23;100.00
47983;BME280;33751;50.816;-1.214;2023-04-29T09:15:51;102026.89;;;30.62;100.00
47983;BME280;33751;50.816;-1.214;2023-04-29T09:18:51;102025.66;;;31.06;100.00
47983;BME280;33751;50.816;-1.214;2023-04-29T09:21:20;102022.36;;;31.15;100.00
47983;BME280;33751;50.816;-1.214;2023-04-29T09:23:48;102026.14;;;30.93;100.00
47983;BME280;33751;50.816;-1.214;2023-04-29T09:26:15;102027.65;;;30.83;100.00
47983;BME280;33751;50.816;-1.214;2023-04-29T09:28:42;102031.66;;;31.17;100.00
47983;BME280;33751;50.816;-1.214;2023-04-29T09:31:08;102032.84;;;30.93;100.00
47983;BME280;33751;50.816;-1.214;2023-04-29T09:33:52;102035.67;;;31.08;100.00
47983;BME280;33751;50.816;-1.214;2023-04-29T09:36:38;102034.54;;;31.28;100.00
47983;BME280;33751;50.816;-1.214;2023-04-29T09:39:05;102032.19;;;31.44;100.00
47983;BME280;33751;50.816;-1.214;2023-04-29T09:41:32;102030.66;;;31.07;100.00
47983;BME280;33751;50.816;-1.214;2023-04-29T09:44:02;102032.59;;;31.38;100.00
47983;BME280;33751;50.816;-1.214;2023-04-29T09:46:29;102033.06;;;31.47;100.00
47983;BME280;33751;50.816;-1.214;2023-04-29T09:48:56;102039.11;;;31.67;100.00
47983;BME280;33751;50.816;-1.214;2023-04-29T09:51:23;102043.97;;;31.91;100.00
47983;BME280;33751;50.816;-1.214;2023-04-29T09:53:50;102044.90;;;31.45;100.00
47983;BME280;33751;50.816;-1.214;2023-04-29T09:56:17;102043.55;;;32.21;100.00
47983;BME280;33751;50.816;-1.214;2023-04-29T09:58:44;102047.94;;;31.75;100.00
47983;BME280;33751;50.816;-1.214;2023-04-29T10:01:11;102047.56;;;31.51;100.00
47983;BME280;33751;50.816;-1.214;2023-04-29T10:03:40;102045.54;;;31.39;100.00
47983;BME280;33751;50.816;-1.214;2023-04-29T10:06:07;102047.35;;;31.51;100.00
47983;BME280;33751;50.816;-1.214;2023-04-29T10:08:34;102046.16;;;31.39;100.00
47983;BME280;33751;50.816;-1.214;2023-04-29T10:11:02;102053.28;;;31.39;100.00
47983;BME280;33751;50.816;-1.214;2023-04-29T10:13:29;102051.98;;;30.45;100.00
47983;BME280;33751;50.816;-1.214;2023-04-29T10:16:02;102055.12;;;31.43;100.00
47983;BME280;33751;50.816;-1.214;2023-04-29T10:18:35;102056.61;;;30.89;100.00
47983;BME280;33751;50.816;-1.214;2023-04-29T10:21:03;102056.59;;;31.19;100.00
47983;BME280;33751;50.816;-1.214;2023-04-29T10:23:32;102051.82;;;30.91;100.00
47983;BME280;33751;50.816;-1.214;2023-04-29T10:26:00;102056.09;;;31.02;100.00
47983;BME280;33751;50.816;-1.214;2023-04-29T10:28:30;102054.53;;;30.72;100.00
47983;BME280;33751;50.816;-1.214;2023-04-29T10:31:00;102054.35;;;31.03;100.00
47983;BME280;33751;50.816;-1.214;2023-04-29T10:33:30;102059.14;;;30.93;100.00
47983;BME280;33751;50.816;-1.214;2023-04-29T10:35:57;102059.68;;;30.90;100.00
47983;BME280;33751;50.816;-1.214;2023-04-29T10:38:29;102056.50;;;30.58;100.00
47983;BME280;33751;50.816;-1.214;2023-04-29T10:41:01;102059.82;;;30.42;100.00
47983;BME280;33751;50.816;-1.214;2023-04-29T10:43:30;102063.50;;;30.75;100.00
47983;BME280;33751;50.816;-1.214;2023-04-29T10:46:16;102070.23;;;30.35;100.00
47983;BME280;33751;50.816;-1.214;2023-04-29T10:48:43;102074.52;;;30.11;100.00
47983;BME280;33751;50.816;-1.214;2023-04-29T10:51:10;102071.80;;;30.18;100.00
47983;BME280;33751;50.816;-1.214;2023-04-29T10:53:58;102073.29;;;30.22;100.00
47983;BME280;33751;50.816;-1.214;2023-04-29T10:56:35;102077.08;;;30.14;100.00
47983;BME280;33751;50.816;-1.214;2023-04-29T10:59:02;102075.55;;;30.31;100.00
47983;BME280;33751;50.816;-1.214;2023-04-29T11:01:40;102080.72;;;30.78;100.00
47983;BME280;33751;50.816;-1.214;2023-04-29T11:04:07;102079.49;;;30.20;100.00
47983;BME280;33751;50.816;-1.214;2023-04-29T11:06:39;102080.26;;;29.95;100.00
47983;BME280;33751;50.816;-1.214;2023-04-29T11:09:09;102081.52;;;30.23;100.00
47983;BME280;33751;50.816;-1.214;2023-04-29T11:11:45;102085.43;;;29.74;100.00
47983;BME280;33751;50.816;-1.214;2023-04-29T11:14:13;102085.88;;;30.26;100.00
47983;BME280;33751;50.816;-1.214;2023-04-29T11:16:49;102081.40;;;29.70;100.00
47983;BME280;33751;50.816;-1.214;2023-04-29T11:19:16;102075.90;;;29.98;100.00
47983;BME280;33751;50.816;-1.214;2023-04-29T11:21:44;102073.93;;;29.92;100.00
47983;BME280;33751;50.816;-1.214;2023-04-29T11:24:11;102074.20;;;29.92;100.00
47983;BME280;33751;50.816;-1.214;2023-04-29T11:26:38;102076.03;;;29.78;100.00
47983;BME280;33751;50.816;-1.214;2023-04-29T11:29:04;102078.18;;;29.89;100.00
47983;BME280;33751;50.816;-1.214;2023-04-29T11:31:33;102073.70;;;29.79;100.00
47983;BME280;33751;50.816;-1.214;2023-04-29T11:34:00;102068.64;;;29.59;100.00
47983;BME280;33751;50.816;-1.214;2023-04-29T11:36:26;102068.17;;;29.26;100.00
47983;BME280;33751;50.816;-1.214;2023-04-29T11:38:53;102065.53;;;29.37;100.00
47983;BME280;33751;50.816;-1.214;2023-04-29T11:41:20;102069.31;;;29.30;100.00
47983;BME280;33751;50.816;-1.214;2023-04-29T11:43:54;102067.71;;;29.28;100.00
47983;BME280;33751;50.816;-1.214;2023-04-29T11:46:21;102065.54;;;29.30;100.00
47983;BME280;33751;50.816;-1.214;2023-04-29T11:48:48;102067.36;;;29.35;100.00
47983;BME280;33751;50.816;-1.214;2023-04-29T11:51:16;102059.77;;;28.92;100.00
47983;BME280;33751;50.816;-1.214;2023-04-29T11:53:44;102053.68;;;29.18;100.00
47983;BME280;33751;50.816;-1.214;2023-04-29T11:56:11;102052.40;;;29.24;100.00
47983;BME280;33751;50.816;-1.214;2023-04-29T11:58:38;102051.65;;;29.02;100.00
47983;BME280;33751;50.816;-1.214;2023-04-29T12:01:05;102053.88;;;29.39;100.00
47983;BME280;33751;50.816;-1.214;2023-04-29T12:03:32;102049.00;;;28.97;100.00
47983;BME280;33751;50.816;-1.214;2023-04-29T12:06:01;102046.70;;;29.39;100.00
47983;BME280;33751;50.816;-1.214;2023-04-29T12:08:28;102048.13;;;29.06;100.00
47983;BME280;33751;50.816;-1.214;2023-04-29T12:10:57;102050.94;;;29.23;100.00
47983;BME280;33751;50.816;-1.214;2023-04-29T12:13:26;102055.51;;;29.55;100.00
47983;BME280;33751;50.816;-1.214;2023-04-29T12:15:53;102057.87;;;28.88;100.00
47983;BME280;33751;50.816;-1.214;2023-04-29T12:18:21;102054.72;;;29.10;100.00
47983;BME280;33751;50.816;-1.214;2023-04-29T12:20:49;102053.22;;;28.77;100.00
47983;BME280;33751;50.816;-1.214;2023-04-29T12:23:17;102051.69;;;28.90;100.00
47983;BME280;33751;50.816;-1.214;2023-04-29T12:25:48;102056.26;;;28.19;100.00
47983;BME280;33751;50.816;-1.214;2023-04-29T12:28:15;102060.24;;;28.73;100.00
47983;BME280;33751;50.816;-1.214;2023-04-29T12:30:43;102059.21;;;28.93;100.00
47983;BME280;33751;50.816;-1.214;2023-04-29T12:33:15;102060.13;;;28.94;100.00